sensor_id;sensor_type;location;lat;lon;timestamp;P1;durP1;ratioP1;P2;durP2;ratioP2
12088;SDS011;6107;49.078;8.578;2023-05-09T00:00:11;16.27;;;12.13;;
12088;SDS011;6107;49.078;8.578;2023-05-09T00:02:37;19.50;;;12.57;;
12088;SDS011;6107;49.078;8.578;2023-05-09T00:05:03;16.07;;;11.83;;
12088;SDS011;6107;49.078;8.578;2023-05-09T00:07:30;18.03;;;12.67;;
12088;SDS011;6107;49.078;8.578;2023-05-09T00:09:56;18.25;;;12.32;;
12088;SDS011;6107;49.078;8.578;2023-05-09T00:12:22;20.53;;;13.90;;
12088;SDS011;6107;49.078;8.578;2023-05-09T00:14:48;15.77;;;11.03;;
12088;SDS011;6107;49.078;8.578;2023-05-09T00:17:15;16.13;;;11.07;;
12088;SDS011;6107;49.078;8.578;2023-05-09T00:19:42;19.60;;;12.00;;
12088;SDS011;6107;49.078;8.578;2023-05-09T00:22:08;15.70;;;11.50;;
12088;SDS011;6107;49.078;8.578;2023-05-09T00:24:34;16.17;;;12.23;;
12088;SDS011;6107;49.078;8.578;2023-05-09T00:26:59;18.50;;;11.83;;
12088;SDS011;6107;49.078;8.578;2023-05-09T00:29:25;15.13;;;12.00;;
12088;SDS011;6107;49.078;8.578;2023-05-09T00:31:51;15.87;;;11.47;;
12088;SDS011;6107;49.078;8.578;2023-05-09T00:34:16;18.40;;;11.90;;
12088;SDS011;6107;49.078;8.578;2023-05-09T00:36:42;15.60;;;11.57;;
12088;SDS011;6107;49.078;8.578;2023-05-09T00:39:07;17.10;;;11.70;;
12088;SDS011;6107;49.078;8.578;2023-05-09T00:41:33;14.87;;;10.27;;
12088;SDS011;6107;49.078;8.578;2023-05-09T00:43:59;16.43;;;11.10;;
12088;SDS011;6107;49.078;8.578;2023-05-09T00:46:25;14.30;;;11.10;;
12088;SDS011;6107;49.078;8.578;2023-05-09T00:48:50;16.73;;;11.17;;
12088;SDS011;6107;49.078;8.578;2023-05-09T00:51:16;15.93;;;12.13;;
12088;SDS011;6107;49.078;8.578;2023-05-09T00:53:43;16.13;;;11.93;;
12088;SDS011;6107;49.078;8.578;2023-05-09T00:56:09;16.83;;;11.90;;
12088;SDS011;6107;49.078;8.578;2023-05-09T00:58:36;15.90;;;11.73;;
12088;SDS011;6107;49.078;8.578;2023-05-09T01:01:02;17.63;;;11.80;;
12088;SDS011;6107;49.078;8.578;2023-05-09T01:03:28;17.43;;;11.90;;
12088;SDS011;6107;49.078;8.578;2023-05-09T01:05:57;17.10;;;11.87;;
12088;SDS011;6107;49.078;8.578;2023-05-09T01:08:46;18.30;;;12.70;;
12088;SDS011;6107;49.078;8.578;2023-05-09T01:11:39;14.93;;;11.33;;
12088;SDS011;6107;49.078;8.578;2023-05-09T01:14:29;15.40;;;12.10;;
12088;SDS011;6107;49.078;8.578;2023-05-09T01:17:34;19.10;;;13.40;;
12088;SDS011;6107;49.078;8.578;2023-05-09T01:20:19;17.77;;;13.23;;
12088;SDS011;6107;49.078;8.578;2023-05-09T01:26:04;18.73;;;13.10;;
12088;SDS011;6107;49.078;8.578;2023-05-09T01:28:48;20.77;;;13.80;;
12088;SDS011;6107;49.078;8.578;2023-05-09T01:31:19;18.80;;;13.27;;
12088;SDS011;6107;49.078;8.578;2023-05-09T01:33:45;20.33;;;13.60;;
12088;SDS011;6107;49.078;8.578;2023-05-09T01:36:15;17.13;;;13.17;;
12088;SDS011;6107;49.078;8.578;2023-05-09T01:38:43;18.47;;;13.47;;
12088;SDS011;6107;49.078;8.578;2023-05-09T01:41:11;18.93;;;13.30;;
12088;SDS011;6107;49.078;8.578;2023-05-09T01:43:40;19.53;;;13.33;;
12088;SDS011;6107;49.078;8.578;2023-05-09T01:46:09;19.50;;;13.73;;
12088;SDS011;6107;49.078;8.578;2023-05-09T01:48:36;18.50;;;13.63;;
12088;SDS011;6107;49.078;8.578;2023-05-09T01:51:02;18.67;;;13.60;;
12088;SDS011;6107;49.078;8.578;2023-05-09T01:53:29;19.37;;;13.33;;
12088;SDS011;6107;49.078;8.578;2023-05-09T01:55:56;17.17;;;13.03;;
12088;SDS011;6107;49.078;8.578;2023-05-09T01:58:23;16.37;;;13.03;;
12088;SDS011;6107;49.078;8.578;2023-05-09T02:00:50;20.50;;;13.63;;
12088;SDS011;6107;49.078;8.578;2023-05-09T02:03:16;17.07;;;12.33;;
12088;SDS011;6107;49.078;8.578;2023-05-09T02:05:42;15.70;;;11.43;;
12088;SDS011;6107;49.078;8.578;2023-05-09T02:08:09;17.23;;;11.43;;
12088;SDS011;6107;49.078;8.578;2023-05-09T02:10:35;18.10;;;12.37;;
12088;SDS011;6107;49.078;8.578;2023-05-09T02:13:02;15.43;;;11.27;;
12088;SDS011;6107;49.078;8.578;2023-05-09T02:15:28;13.93;;;11.60;;
12088;SDS011;6107;49.078;8.578;2023-05-09T02:17:54;17.83;;;11.47;;
12088;SDS011;6107;49.078;8.578;2023-05-09T02:20:20;14.23;;;11.90;;
12088;SDS011;6107;49.078;8.578;2023-05-09T02:22:46;15.83;;;11.60;;
12088;SDS011;6107;49.078;8.578;2023-05-09T02:25:12;15.43;;;11.97;;
12088;SDS011;6107;49.078;8.578;2023-05-09T02:27:39;18.10;;;12.32;;
12088;SDS011;6107;49.078;8.578;2023-05-09T02:30:06;16.30;;;12.30;;
12088;SDS011;6107;49.078;8.578;2023-05-09T02:32:35;15.70;;;11.13;;
12088;SDS011;6107;49.078;8.578;2023-05-09T02:35:03;16.30;;;11.20;;
12088;SDS011;6107;49.078;8.578;2023-05-09T02:37:30;16.70;;;11.90;;
12088;SDS011;6107;49.078;8.578;2023-05-09T02:39:57;14.27;;;11.53;;
12088;SDS011;6107;49.078;8.578;2023-05-09T02:42:23;16.33;;;10.93;;
12088;SDS011;6107;49.078;8.578;2023-05-09T02:44:50;14.97;;;11.50;;
12088;SDS011;6107;49.078;8.578;2023-05-09T02:47:16;17.60;;;11.50;;
12088;SDS011;6107;49.078;8.578;2023-05-09T02:49:42;19.40;;;10.88;;
12088;SDS011;6107;49.078;8.578;2023-05-09T02:52:08;14.60;;;10.90;;
12088;SDS011;6107;49.078;8.578;2023-05-09T02:54:35;16.33;;;11.87;;
12088;SDS011;6107;49.078;8.578;2023-05-09T02:57:01;14.48;;;11.20;;
12088;SDS011;6107;49.078;8.578;2023-05-09T02:59:27;14.60;;;11.40;;
12088;SDS011;6107;49.078;8.578;2023-05-09T03:01:52;18.17;;;12.00;;
12088;SDS011;6107;49.078;8.578;2023-05-09T03:04:18;14.73;;;11.13;;
12088;SDS011;6107;49.078;8.578;2023-05-09T03:06:43;16.73;;;11.82;;
12088;SDS011;6107;49.078;8.578;2023-05-09T03:09:09;15.63;;;11.60;;
12088;SDS011;6107;49.078;8.578;2023-05-09T03:11:35;14.60;;;11.13;;
12088;SDS011;6107;49.078;8.578;2023-05-09T03:14:01;14.60;;;11.40;;
12088;SDS011;6107;49.078;8.578;2023-05-09T03:16:27;15.13;;;11.40;;
12088;SDS011;6107;49.078;8.578;2023-05-09T03:18:53;17.27;;;12.10;;
12088;SDS011;6107;49.078;8.578;2023-05-09T03:21:18;14.73;;;11.27;;
12088;SDS011;6107;49.078;8.578;2023-05-09T03:23:44;16.23;;;11.87;;
12088;SDS011;6107;49.078;8.578;2023-05-09T03:26:10;14.77;;;10.82;;
12088;SDS011;6107;49.078;8.578;2023-05-09T03:28:36;14.37;;;11.23;;
12088;SDS011;6107;49.078;8.578;2023-05-09T03:31:02;15.27;;;11.43;;
12088;SDS011;6107;49.078;8.578;2023-05-09T03:33:28;15.53;;;11.57;;
12088;SDS011;6107;49.078;8.578;2023-05-09T03:35:54;16.00;;;11.37;;
12088;SDS011;6107;49.078;8.578;2023-05-09T03:38:19;13.20;;;10.77;;
12088;SDS011;6107;49.078;8.578;2023-05-09T03:40:48;12.95;;;10.43;;
12088;SDS011;6107;49.078;8.578;2023-05-09T03:43:14;15.27;;;10.93;;
12088;SDS011;6107;49.078;8.578;2023-05-09T03:45:39;15.98;;;10.98;;
12088;SDS011;6107;49.078;8.578;2023-05-09T03:48:05;15.97;;;11.30;;
12088;SDS011;6107;49.078;8.578;2023-05-09T03:50:33;16.57;;;11.13;;
12088;SDS011;6107;49.078;8.578;2023-05-09T03:53:02;14.73;;;11.43;;
12088;SDS011;6107;49.078;8.578;2023-05-09T03:55:27;12.97;;;10.57;;
12088;SDS011;6107;49.078;8.578;2023-05-09T03:57:53;16.13;;;11.45;;
12088;SDS011;6107;49.078;8.578;2023-05-09T04:00:19;12.20;;;10.50;;
12088;SDS011;6107;49.078;8.578;2023-05-09T04:02:46;11.90;;;9.05;;
12088;SDS011;6107;49.078;8.578;2023-05-09T04:05:12;15.20;;;13.60;;
12088;SDS011;6107;49.078;8.578;2023-05-09T04:07:38;15.38;;;9.35;;
12088;SDS011;6107;49.078;8.578;2023-05-09T04:10:04;10.57;;;9.07;;
12088;SDS011;6107;49.078;8.578;2023-05-09T04:12:30;12.27;;;9.82;;
12088;SDS011;6107;49.078;8.578;2023-05-09T04:14:56;12.35;;;9.35;;
12088;SDS011;6107;49.078;8.578;2023-05-09T04:17:21;10.32;;;8.35;;
12088;SDS011;6107;49.078;8.578;2023-05-09T04:19:47;11.48;;;8.70;;
12088;SDS011;6107;49.078;8.578;2023-05-09T04:22:12;11.93;;;8.88;;
12088;SDS011;6107;49.078;8.578;2023-05-09T04:24:38;10.85;;;8.68;;
12088;SDS011;6107;49.078;8.578;2023-05-09T04:27:04;10.70;;;8.40;;
12088;SDS011;6107;49.078;8.578;2023-05-09T04:29:29;10.68;;;8.80;;
12088;SDS011;6107;49.078;8.578;2023-05-09T04:31:55;13.02;;;8.93;;
12088;SDS011;6107;49.078;8.578;2023-05-09T04:34:21;12.05;;;8.45;;
12088;SDS011;6107;49.078;8.578;2023-05-09T04:36:47;11.15;;;7.88;;
12088;SDS011;6107;49.078;8.578;2023-05-09T04:39:13;13.93;;;10.75;;
12088;SDS011;6107;49.078;8.578;2023-05-09T04:41:38;12.57;;;9.00;;
12088;SDS011;6107;49.078;8.578;2023-05-09T04:44:04;10.45;;;8.35;;
12088;SDS011;6107;49.078;8.578;2023-05-09T04:46:29;24.20;;;12.98;;
12088;SDS011;6107;49.078;8.578;2023-05-09T04:48:55;41.63;;;17.83;;
12088;SDS011;6107;49.078;8.578;2023-05-09T04:51:20;13.27;;;9.38;;
12088;SDS011;6107;49.078;8.578;2023-05-09T04:53:46;16.05;;;10.40;;
12088;SDS011;6107;49.078;8.578;2023-05-09T04:56:11;13.70;;;10.15;;
12088;SDS011;6107;49.078;8.578;2023-05-09T04:58:37;13.40;;;9.10;;
12088;SDS011;6107;49.078;8.578;2023-05-09T05:01:05;12.55;;;8.38;;
12088;SDS011;6107;49.078;8.578;2023-05-09T05:03:31;11.00;;;8.45;;
12088;SDS011;6107;49.078;8.578;2023-05-09T05:05:57;11.63;;;8.55;;
12088;SDS011;6107;49.078;8.578;2023-05-09T05:08:23;10.90;;;9.02;;
12088;SDS011;6107;49.078;8.578;2023-05-09T05:10:48;11.35;;;8.77;;
12088;SDS011;6107;49.078;8.578;2023-05-09T05:13:15;15.98;;;10.52;;
12088;SDS011;6107;49.078;8.578;2023-05-09T05:15:40;11.95;;;9.23;;
12088;SDS011;6107;49.078;8.578;2023-05-09T05:18:06;12.50;;;8.88;;
12088;SDS011;6107;49.078;8.578;2023-05-09T05:20:32;12.90;;;8.90;;
12088;SDS011;6107;49.078;8.578;2023-05-09T05:22:57;9.88;;;7.95;;
12088;SDS011;6107;49.078;8.578;2023-05-09T05:25:23;9.50;;;8.00;;
12088;SDS011;6107;49.078;8.578;2023-05-09T05:27:49;11.52;;;9.00;;
12088;SDS011;6107;49.078;8.578;2023-05-09T05:30:15;13.20;;;8.63;;
12088;SDS011;6107;49.078;8.578;2023-05-09T05:32:40;9.65;;;8.30;;
12088;SDS011;6107;49.078;8.578;2023-05-09T05:35:07;10.80;;;8.10;;
12088;SDS011;6107;49.078;8.578;2023-05-09T05:37:35;12.10;;;8.55;;
12088;SDS011;6107;49.078;8.578;2023-05-09T05:40:04;12.85;;;9.32;;
12088;SDS011;6107;49.078;8.578;2023-05-09T05:42:31;16.25;;;9.93;;
12088;SDS011;6107;49.078;8.578;2023-05-09T05:44:56;15.23;;;9.85;;
12088;SDS011;6107;49.078;8.578;2023-05-09T05:47:28;13.82;;;9.70;;
12088;SDS011;6107;49.078;8.578;2023-05-09T05:50:00;16.33;;;11.27;;
12088;SDS011;6107;49.078;8.578;2023-05-09T05:52:27;15.63;;;11.57;;
12088;SDS011;6107;49.078;8.578;2023-05-09T05:54:53;16.73;;;10.43;;
12088;SDS011;6107;49.078;8.578;2023-05-09T05:57:19;12.98;;;10.00;;
12088;SDS011;6107;49.078;8.578;2023-05-09T05:59:48;14.63;;;9.35;;
12088;SDS011;6107;49.078;8.578;2023-05-09T06:02:15;10.75;;;8.82;;
12088;SDS011;6107;49.078;8.578;2023-05-09T06:04:41;13.52;;;9.43;;
12088;SDS011;6107;49.078;8.578;2023-05-09T06:07:07;13.23;;;9.15;;
12088;SDS011;6107;49.078;8.578;2023-05-09T06:09:32;11.30;;;9.18;;
12088;SDS011;6107;49.078;8.578;2023-05-09T06:11:58;11.38;;;9.43;;
12088;SDS011;6107;49.078;8.578;2023-05-09T06:14:23;11.60;;;9.07;;
12088;SDS011;6107;49.078;8.578;2023-05-09T06:16:49;12.02;;;8.98;;
12088;SDS011;6107;49.078;8.578;2023-05-09T06:19:15;12.68;;;9.73;;
12088;SDS011;6107;49.078;8.578;2023-05-09T06:21:41;15.80;;;10.00;;
12088;SDS011;6107;49.078;8.578;2023-05-09T06:24:07;14.15;;;10.18;;
12088;SDS011;6107;49.078;8.578;2023-05-09T06:26:32;15.48;;;10.52;;
12088;SDS011;6107;49.078;8.578;2023-05-09T06:28:58;15.07;;;11.00;;
12088;SDS011;6107;49.078;8.578;2023-05-09T06:31:23;15.38;;;11.10;;
12088;SDS011;6107;49.078;8.578;2023-05-09T06:33:49;17.95;;;11.65;;
12088;SDS011;6107;49.078;8.578;2023-05-09T06:36:14;16.10;;;12.38;;
12088;SDS011;6107;49.078;8.578;2023-05-09T06:38:40;17.10;;;11.82;;
12088;SDS011;6107;49.078;8.578;2023-05-09T06:41:06;18.27;;;13.30;;
12088;SDS011;6107;49.078;8.578;2023-05-09T06:43:31;17.60;;;12.82;;
12088;SDS011;6107;49.078;8.578;2023-05-09T06:45:57;19.15;;;12.52;;
12088;SDS011;6107;49.078;8.578;2023-05-09T06:48:23;18.50;;;13.27;;
12088;SDS011;6107;49.078;8.578;2023-05-09T06:50:49;19.23;;;13.43;;
12088;SDS011;6107;49.078;8.578;2023-05-09T06:53:14;17.35;;;12.82;;
12088;SDS011;6107;49.078;8.578;2023-05-09T06:55:40;19.52;;;13.88;;
12088;SDS011;6107;49.078;8.578;2023-05-09T06:58:06;20.35;;;14.52;;
12088;SDS011;6107;49.078;8.578;2023-05-09T07:00:32;21.30;;;14.80;;
12088;SDS011;6107;49.078;8.578;2023-05-09T07:02:58;22.17;;;15.50;;
12088;SDS011;6107;49.078;8.578;2023-05-09T07:05:23;21.85;;;15.75;;
12088;SDS011;6107;49.078;8.578;2023-05-09T07:07:49;21.90;;;16.23;;
12088;SDS011;6107;49.078;8.578;2023-05-09T07:10:15;21.92;;;15.70;;
12088;SDS011;6107;49.078;8.578;2023-05-09T07:12:41;23.17;;;15.75;;
12088;SDS011;6107;49.078;8.578;2023-05-09T07:15:06;21.45;;;15.07;;
12088;SDS011;6107;49.078;8.578;2023-05-09T07:17:32;25.17;;;14.77;;
12088;SDS011;6107;49.078;8.578;2023-05-09T07:19:58;21.17;;;14.00;;
12088;SDS011;6107;49.078;8.578;2023-05-09T07:22:24;22.98;;;14.90;;
12088;SDS011;6107;49.078;8.578;2023-05-09T07:24:49;23.35;;;15.40;;
12088;SDS011;6107;49.078;8.578;2023-05-09T07:27:15;19.75;;;13.88;;
12088;SDS011;6107;49.078;8.578;2023-05-09T07:29:40;22.52;;;16.08;;
12088;SDS011;6107;49.078;8.578;2023-05-09T07:32:06;23.55;;;15.65;;
12088;SDS011;6107;49.078;8.578;2023-05-09T07:34:31;24.02;;;15.23;;
12088;SDS011;6107;49.078;8.578;2023-05-09T07:36:57;21.77;;;15.15;;
12088;SDS011;6107;49.078;8.578;2023-05-09T07:39:22;25.23;;;16.15;;
12088;SDS011;6107;49.078;8.578;2023-05-09T07:41:48;22.52;;;15.18;;
12088;SDS011;6107;49.078;8.578;2023-05-09T07:44:14;21.77;;;15.52;;
12088;SDS011;6107;49.078;8.578;2023-05-09T07:46:39;19.08;;;14.07;;
12088;SDS011;6107;49.078;8.578;2023-05-09T07:49:06;22.60;;;15.10;;
12088;SDS011;6107;49.078;8.578;2023-05-09T07:51:32;21.10;;;14.90;;
12088;SDS011;6107;49.078;8.578;2023-05-09T07:53:57;20.52;;;14.35;;
12088;SDS011;6107;49.078;8.578;2023-05-09T07:56:23;19.63;;;14.10;;
12088;SDS011;6107;49.078;8.578;2023-05-09T07:58:48;24.83;;;15.38;;
12088;SDS011;6107;49.078;8.578;2023-05-09T08:01:14;21.77;;;14.80;;
12088;SDS011;6107;49.078;8.578;2023-05-09T08:03:40;19.83;;;14.15;;
12088;SDS011;6107;49.078;8.578;2023-05-09T08:06:05;22.92;;;15.75;;
12088;SDS011;6107;49.078;8.578;2023-05-09T08:08:31;23.02;;;13.63;;
12088;SDS011;6107;49.078;8.578;2023-05-09T08:10:57;23.30;;;14.45;;
12088;SDS011;6107;49.078;8.578;2023-05-09T08:13:24;57.42;;;27.65;;
12088;SDS011;6107;49.078;8.578;2023-05-09T08:15:50;22.98;;;15.27;;
12088;SDS011;6107;49.078;8.578;2023-05-09T08:18:15;21.65;;;14.73;;
12088;SDS011;6107;49.078;8.578;2023-05-09T08:20:41;20.08;;;14.55;;
12088;SDS011;6107;49.078;8.578;2023-05-09T08:23:07;20.63;;;13.50;;
12088;SDS011;6107;49.078;8.578;2023-05-09T08:25:32;26.17;;;17.27;;
12088;SDS011;6107;49.078;8.578;2023-05-09T08:27:58;17.63;;;13.48;;
12088;SDS011;6107;49.078;8.578;2023-05-09T08:30:24;21.55;;;14.77;;
12088;SDS011;6107;49.078;8.578;2023-05-09T08:32:49;19.17;;;14.55;;
12088;SDS011;6107;49.078;8.578;2023-05-09T08:35:15;17.65;;;11.75;;
12088;SDS011;6107;49.078;8.578;2023-05-09T08:37:40;16.65;;;11.90;;
12088;SDS011;6107;49.078;8.578;2023-05-09T08:40:06;18.13;;;13.48;;
12088;SDS011;6107;49.078;8.578;2023-05-09T08:42:32;19.48;;;14.27;;
12088;SDS011;6107;49.078;8.578;2023-05-09T08:45:00;18.70;;;13.18;;
12088;SDS011;6107;49.078;8.578;2023-05-09T08:47:35;20.38;;;14.85;;
12088;SDS011;6107;49.078;8.578;2023-05-09T08:50:02;17.63;;;13.73;;
12088;SDS011;6107;49.078;8.578;2023-05-09T08:52:29;17.15;;;13.18;;
12088;SDS011;6107;49.078;8.578;2023-05-09T08:54:56;17.30;;;12.77;;
12088;SDS011;6107;49.078;8.578;2023-05-09T08:57:22;16.48;;;12.60;;
12088;SDS011;6107;49.078;8.578;2023-05-09T08:59:47;19.63;;;13.32;;
12088;SDS011;6107;49.078;8.578;2023-05-09T09:02:15;19.42;;;13.98;;
12088;SDS011;6107;49.078;8.578;2023-05-09T09:04:41;15.48;;;12.57;;
12088;SDS011;6107;49.078;8.578;2023-05-09T09:07:06;16.02;;;12.57;;
12088;SDS011;6107;49.078;8.578;2023-05-09T09:09:33;14.32;;;11.63;;
12088;SDS011;6107;49.078;8.578;2023-05-09T09:12:00;15.90;;;12.40;;
12088;SDS011;6107;49.078;8.578;2023-05-09T09:14:30;34.50;;;24.30;;
12088;SDS011;6107;49.078;8.578;2023-05-09T09:16:59;20.88;;;14.60;;
12088;SDS011;6107;49.078;8.578;2023-05-09T09:19:27;18.15;;;14.05;;
12088;SDS011;6107;49.078;8.578;2023-05-09T09:21:55;28.45;;;13.07;;
12088;SDS011;6107;49.078;8.578;2023-05-09T09:24:23;18.92;;;12.75;;
12088;SDS011;6107;49.078;8.578;2023-05-09T09:26:49;19.40;;;14.88;;
12088;SDS011;6107;49.078;8.578;2023-05-09T09:29:16;16.63;;;12.82;;
12088;SDS011;6107;49.078;8.578;2023-05-09T09:31:43;15.88;;;11.95;;
12088;SDS011;6107;49.078;8.578;2023-05-09T09:34:11;15.73;;;11.40;;
12088;SDS011;6107;49.078;8.578;2023-05-09T09:36:38;14.48;;;11.73;;
12088;SDS011;6107;49.078;8.578;2023-05-09T09:39:03;17.98;;;13.23;;
12088;SDS011;6107;49.078;8.578;2023-05-09T09:41:33;15.45;;;12.27;;
12088;SDS011;6107;49.078;8.578;2023-05-09T09:44:10;14.95;;;12.23;;
12088;SDS011;6107;49.078;8.578;2023-05-09T09:46:44;16.33;;;11.80;;
12088;SDS011;6107;49.078;8.578;2023-05-09T09:49:15;13.27;;;11.85;;
12088;SDS011;6107;49.078;8.578;2023-05-09T09:51:42;17.63;;;12.23;;
12088;SDS011;6107;49.078;8.578;2023-05-09T09:54:08;15.25;;;11.85;;
12088;SDS011;6107;49.078;8.578;2023-05-09T09:59:11;17.50;;;11.07;;
12088;SDS011;6107;49.078;8.578;2023-05-09T10:01:54;17.08;;;11.85;;
12088;SDS011;6107;49.078;8.578;2023-05-09T10:04:21;15.52;;;12.18;;
12088;SDS011;6107;49.078;8.578;2023-05-09T10:06:51;17.70;;;13.13;;
12088;SDS011;6107;49.078;8.578;2023-05-09T10:09:18;18.38;;;12.60;;
12088;SDS011;6107;49.078;8.578;2023-05-09T10:11:45;22.85;;;14.85;;
12088;SDS011;6107;49.078;8.578;2023-05-09T10:14:13;19.38;;;13.60;;
12088;SDS011;6107;49.078;8.578;2023-05-09T10:16:38;17.75;;;13.68;;
12088;SDS011;6107;49.078;8.578;2023-05-09T10:19:04;19.70;;;13.25;;
12088;SDS011;6107;49.078;8.578;2023-05-09T10:21:30;17.15;;;12.38;;
12088;SDS011;6107;49.078;8.578;2023-05-09T10:23:57;17.10;;;12.55;;
12088;SDS011;6107;49.078;8.578;2023-05-09T10:26:24;17.27;;;13.27;;
12088;SDS011;6107;49.078;8.578;2023-05-09T10:28:56;16.23;;;12.15;;
12088;SDS011;6107;49.078;8.578;2023-05-09T10:31:25;16.05;;;12.48;;
12088;SDS011;6107;49.078;8.578;2023-05-09T10:33:52;15.90;;;12.20;;
12088;SDS011;6107;49.078;8.578;2023-05-09T10:36:20;18.95;;;13.85;;
12088;SDS011;6107;49.078;8.578;2023-05-09T10:38:48;17.35;;;12.93;;
12088;SDS011;6107;49.078;8.578;2023-05-09T10:41:17;15.10;;;12.00;;
12088;SDS011;6107;49.078;8.578;2023-05-09T10:43:46;15.57;;;11.20;;
12088;SDS011;6107;49.078;8.578;2023-05-09T10:46:12;13.55;;;10.82;;
12088;SDS011;6107;49.078;8.578;2023-05-09T10:48:39;14.15;;;10.65;;
12088;SDS011;6107;49.078;8.578;2023-05-09T10:51:06;16.90;;;12.85;;
12088;SDS011;6107;49.078;8.578;2023-05-09T10:53:39;17.40;;;13.60;;
12088;SDS011;6107;49.078;8.578;2023-05-09T10:56:06;16.15;;;12.40;;
12088;SDS011;6107;49.078;8.578;2023-05-09T10:58:32;15.18;;;11.68;;
12088;SDS011;6107;49.078;8.578;2023-05-09T11:01:00;16.38;;;11.73;;
12088;SDS011;6107;49.078;8.578;2023-05-09T11:03:28;18.05;;;12.68;;
12088;SDS011;6107;49.078;8.578;2023-05-09T11:06:38;18.75;;;13.38;;
12088;SDS011;6107;49.078;8.578;2023-05-09T11:09:21;15.13;;;11.70;;
12088;SDS011;6107;49.078;8.578;2023-05-09T11:12:06;15.65;;;11.95;;
12088;SDS011;6107;49.078;8.578;2023-05-09T11:17:05;18.92;;;12.82;;
12088;SDS011;6107;49.078;8.578;2023-05-09T11:22:18;14.60;;;11.77;;
12088;SDS011;6107;49.078;8.578;2023-05-09T11:24:58;14.75;;;11.20;;
12088;SDS011;6107;49.078;8.578;2023-05-09T11:27:38;15.07;;;11.95;;
12088;SDS011;6107;49.078;8.578;2023-05-09T11:30:13;19.95;;;14.35;;
12088;SDS011;6107;49.078;8.578;2023-05-09T11:32:41;19.88;;;13.80;;
12088;SDS011;6107;49.078;8.578;2023-05-09T11:35:08;19.83;;;14.30;;
12088;SDS011;6107;49.078;8.578;2023-05-09T11:38:19;17.50;;;13.38;;
12088;SDS011;6107;49.078;8.578;2023-05-09T11:40:28;18.10;;;13.65;;
12088;SDS011;6107;49.078;8.578;2023-05-09T11:42:55;18.38;;;13.82;;
12088;SDS011;6107;49.078;8.578;2023-05-09T11:45:22;17.75;;;14.23;;
12088;SDS011;6107;49.078;8.578;2023-05-09T11:47:50;18.63;;;14.50;;
12088;SDS011;6107;49.078;8.578;2023-05-09T11:50:18;16.90;;;12.75;;
12088;SDS011;6107;49.078;8.578;2023-05-09T11:52:44;19.45;;;14.95;;
12088;SDS011;6107;49.078;8.578;2023-05-09T11:55:11;18.30;;;12.73;;
12088;SDS011;6107;49.078;8.578;2023-05-09T11:57:39;18.67;;;13.57;;
12088;SDS011;6107;49.078;8.578;2023-05-09T12:00:09;16.67;;;13.43;;
12088;SDS011;6107;49.078;8.578;2023-05-09T12:02:36;15.50;;;12.15;;
12088;SDS011;6107;49.078;8.578;2023-05-09T12:05:12;16.10;;;12.75;;
12088;SDS011;6107;49.078;8.578;2023-05-09T12:07:39;13.10;;;10.73;;
12088;SDS011;6107;49.078;8.578;2023-05-09T12:10:05;12.85;;;10.75;;
12088;SDS011;6107;49.078;8.578;2023-05-09T12:12:32;14.57;;;11.25;;
12088;SDS011;6107;49.078;8.578;2023-05-09T12:15:05;12.68;;;10.77;;
12088;SDS011;6107;49.078;8.578;2023-05-09T12:17:32;12.55;;;10.55;;
12088;SDS011;6107;49.078;8.578;2023-05-09T12:19:58;13.32;;;11.25;;
12088;SDS011;6107;49.078;8.578;2023-05-09T12:22:25;16.67;;;10.88;;
12088;SDS011;6107;49.078;8.578;2023-05-09T12:24:51;15.25;;;11.15;;
12088;SDS011;6107;49.078;8.578;2023-05-09T12:27:18;16.67;;;12.48;;
12088;SDS011;6107;49.078;8.578;2023-05-09T12:29:44;16.10;;;11.43;;
12088;SDS011;6107;49.078;8.578;2023-05-09T12:32:12;15.13;;;11.60;;
12088;SDS011;6107;49.078;8.578;2023-05-09T12:34:39;13.50;;;10.80;;
12088;SDS011;6107;49.078;8.578;2023-05-09T12:37:12;15.00;;;10.90;;
12088;SDS011;6107;49.078;8.578;2023-05-09T12:39:40;11.02;;;8.82;;
12088;SDS011;6107;49.078;8.578;2023-05-09T12:42:10;11.65;;;9.88;;
12088;SDS011;6107;49.078;8.578;2023-05-09T12:44:36;15.70;;;10.73;;
12088;SDS011;6107;49.078;8.578;2023-05-09T12:47:02;12.52;;;9.98;;
12088;SDS011;6107;49.078;8.578;2023-05-09T12:49:29;15.60;;;12.13;;
12088;SDS011;6107;49.078;8.578;2023-05-09T12:51:56;13.27;;;9.73;;
12088;SDS011;6107;49.078;8.578;2023-05-09T12:54:23;16.10;;;11.07;;
12088;SDS011;6107;49.078;8.578;2023-05-09T12:56:50;13.32;;;10.48;;
12088;SDS011;6107;49.078;8.578;2023-05-09T12:59:20;13.30;;;10.25;;
12088;SDS011;6107;49.078;8.578;2023-05-09T13:01:51;11.77;;;10.27;;
12088;SDS011;6107;49.078;8.578;2023-05-09T13:04:19;11.50;;;9.75;;
12088;SDS011;6107;49.078;8.578;2023-05-09T13:06:49;13.05;;;10.90;;
12088;SDS011;6107;49.078;8.578;2023-05-09T13:09:16;10.18;;;8.18;;
12088;SDS011;6107;49.078;8.578;2023-05-09T13:11:42;10.15;;;7.75;;
12088;SDS011;6107;49.078;8.578;2023-05-09T13:14:09;9.63;;;7.65;;
12088;SDS011;6107;49.078;8.578;2023-05-09T13:16:35;7.47;;;6.38;;
12088;SDS011;6107;49.078;8.578;2023-05-09T13:19:01;9.25;;;7.15;;
12088;SDS011;6107;49.078;8.578;2023-05-09T13:21:26;11.15;;;7.70;;
12088;SDS011;6107;49.078;8.578;2023-05-09T13:23:52;9.23;;;8.20;;
12088;SDS011;6107;49.078;8.578;2023-05-09T13:26:18;14.07;;;10.57;;
12088;SDS011;6107;49.078;8.578;2023-05-09T13:28:45;12.10;;;9.60;;
12088;SDS011;6107;49.078;8.578;2023-05-09T13:31:10;12.18;;;10.00;;
12088;SDS011;6107;49.078;8.578;2023-05-09T13:33:36;10.55;;;8.82;;
12088;SDS011;6107;49.078;8.578;2023-05-09T13:36:01;11.65;;;9.43;;
12088;SDS011;6107;49.078;8.578;2023-05-09T13:38:27;9.57;;;8.20;;
12088;SDS011;6107;49.078;8.578;2023-05-09T13:40:56;12.35;;;8.07;;
12088;SDS011;6107;49.078;8.578;2023-05-09T13:43:21;10.73;;;8.57;;
12088;SDS011;6107;49.078;8.578;2023-05-09T13:45:47;10.48;;;8.15;;
12088;SDS011;6107;49.078;8.578;2023-05-09T13:48:12;11.63;;;8.48;;
12088;SDS011;6107;49.078;8.578;2023-05-09T13:50:38;8.88;;;7.88;;
12088;SDS011;6107;49.078;8.578;2023-05-09T13:53:04;9.38;;;7.35;;
12088;SDS011;6107;49.078;8.578;2023-05-09T13:55:29;8.73;;;7.68;;
12088;SDS011;6107;49.078;8.578;2023-05-09T13:57:55;8.00;;;6.82;;
12088;SDS011;6107;49.078;8.578;2023-05-09T14:00:21;9.80;;;7.45;;
12088;SDS011;6107;49.078;8.578;2023-05-09T14:02:49;11.43;;;8.60;;
12088;SDS011;6107;49.078;8.578;2023-05-09T14:05:16;10.95;;;7.47;;
12088;SDS011;6107;49.078;8.578;2023-05-09T14:07:42;11.45;;;9.15;;
12088;SDS011;6107;49.078;8.578;2023-05-09T14:10:07;9.95;;;7.38;;
12088;SDS011;6107;49.078;8.578;2023-05-09T14:12:33;10.07;;;7.60;;
12088;SDS011;6107;49.078;8.578;2023-05-09T14:14:59;11.15;;;8.27;;
12088;SDS011;6107;49.078;8.578;2023-05-09T14:17:25;11.20;;;8.65;;
12088;SDS011;6107;49.078;8.578;2023-05-09T14:19:50;17.20;;;12.05;;
12088;SDS011;6107;49.078;8.578;2023-05-09T14:22:16;10.63;;;8.57;;
12088;SDS011;6107;49.078;8.578;2023-05-09T14:24:42;9.32;;;7.70;;
12088;SDS011;6107;49.078;8.578;2023-05-09T14:27:07;11.38;;;8.90;;
12088;SDS011;6107;49.078;8.578;2023-05-09T14:29:33;8.68;;;7.72;;
12088;SDS011;6107;49.078;8.578;2023-05-09T14:32:00;8.20;;;7.30;;
12088;SDS011;6107;49.078;8.578;2023-05-09T14:34:26;8.98;;;7.50;;
12088;SDS011;6107;49.078;8.578;2023-05-09T14:36:51;11.35;;;8.27;;
12088;SDS011;6107;49.078;8.578;2023-05-09T14:39:17;8.32;;;6.60;;
12088;SDS011;6107;49.078;8.578;2023-05-09T14:41:44;7.75;;;5.88;;
12088;SDS011;6107;49.078;8.578;2023-05-09T14:44:12;8.30;;;6.15;;
12088;SDS011;6107;49.078;8.578;2023-05-09T14:46:38;9.07;;;6.70;;
12088;SDS011;6107;49.078;8.578;2023-05-09T14:49:04;5.38;;;4.50;;